Aviation weather information 2019-12-11 09:38 UTC

TAF(FCEO32)
FCEO32 EETN 110400 AAA
TAF AMD EEKA 110830Z 1105/1111 CNL=
FCEO32 EETN 110600
TAF EEKE 110600Z 1107/1113 18015G25KT 9999 BKN025 BECMG
     1108/1110 19025G35KT=

TAF(FTEO31)
FTEO31 EETN 110500
TAF EETN 110525Z 1106/1206 17012KT CAVOK BECMG 1106/1108
     17015G25KT BKN020 TEMPO 1109/1118 18018G30KT SCT015CB TEMPO
     1114/1120 3000 SHSNGS BKN013 SCT020CB=

TAF(FTEO33)
FTEO33 EEEI 110530
TAF EEEI 110530Z 1106/1206 16012KT 9999 BKN018 TEMPO 1108/1118 18018G29KT PROB40 TEMPO 1116/1122 4000 SNRA BKN004=

Weather observation (METAR/SPECI)
METAR EETN 110920Z 17012KT 140V200 CAVOK M02/M03 Q1013 R08/19//95
NOSIG=
METAR EEEI 110850Z 14011KT CAVOK M01/M03 Q1013 R24/190095 NOSIG=
METAR EETU 110920Z AUTO 17010KT 9999 NCD M02/M05 Q1018=
METAR EEPU 110850Z 17008KT 110V220 CAVOK M00/M01 Q1016=
METAR EEKE 110850Z 20020KT 9999 FEW019 03/00 Q1013 R17/09//95=
METAR EEKA 110850Z 17013KT CAVOK 02/M01 Q1011=